Time;durP1;ratioP1;P1;durP2;ratioP2;P2;SDS_P1;SDS_P2;PMS_P1;PMS_P2;Temp;Humidity;BMP_temperature;BMP_pressure;BME280_temperature;BME280_humidity;BME280_pressure;Samples;Min_cycle;Max_cycle;Signal;HPM_P1;HPM_P2
2023/07/31 00:00:05;;;;;;;6.50;4.68;;;;;;;18.24;100.00;98421.38;4484188;31;20092;-66
2023/07/31 00:02:36;;;;;;;6.82;3.90;;;;;;;18.23;100.00;98418.91;4484481;31;20081;-66
2023/07/31 00:05:04;;;;;;;5.93;3.70;;;;;;;18.20;100.00;98425.41;4484432;32;20109;-66
2023/07/31 00:07:32;;;;;;;5.03;4.12;;;;;;;18.17;100.00;98423.16;4484427;31;20097;-66
2023/07/31 00:10:00;;;;;;;6.40;4.45;;;;;;;18.15;100.00;98419.03;4484169;31;20085;-66
2023/07/31 00:12:30;;;;;;;6.62;4.62;;;;;;;18.12;100.00;98409.63;4484198;32;20101;-66
2023/07/31 00:14:57;;;;;;;6.78;4.43;;;;;;;18.08;100.00;98411.88;4484090;31;20096;-66
2023/07/31 00:17:25;;;;;;;7.00;4.00;;;;;;;18.07;100.00;98412.88;4484116;32;20123;-66
2023/07/31 00:19:52;;;;;;;5.50;4.00;;;;;;;18.03;100.00;98413.47;4483960;32;20446;-66
2023/07/31 00:22:19;;;;;;;5.85;4.25;;;;;;;17.98;100.00;98413.22;4484051;32;20100;-65
2023/07/31 00:24:47;;;;;;;5.03;4.00;;;;;;;17.95;100.00;98421.56;4483951;32;20515;-66
2023/07/31 00:27:15;;;;;;;6.00;4.28;;;;;;;17.93;100.00;98423.59;4484009;32;20596;-66
2023/07/31 00:29:43;;;;;;;6.40;4.40;;;;;;;17.94;100.00;98427.88;4483942;31;20089;-66
2023/07/31 00:32:11;;;;;;;7.35;4.53;;;;;;;17.85;100.00;98420.03;4486004;32;20123;-66
2023/07/31 00:34:38;;;;;;;6.95;4.75;;;;;;;17.84;100.00;98421.03;4486257;32;20119;-66
2023/07/31 00:37:06;;;;;;;9.07;4.80;;;;;;;17.81;100.00;98424.09;4486173;32;20137;-66
2023/07/31 00:39:34;;;;;;;8.73;5.05;;;;;;;17.77;100.00;98422.00;4486186;31;20167;-66
2023/07/31 00:42:03;;;;;;;5.80;4.57;;;;;;;17.76;100.00;98418.56;4485704;32;20576;-66
2023/07/31 00:44:32;;;;;;;6.97;5.10;;;;;;;17.78;100.00;98423.66;4486135;31;20195;-66
2023/07/31 00:47:00;;;;;;;7.15;4.95;;;;;;;17.78;100.00;98424.47;4486087;31;20183;-66
2023/07/31 00:49:28;;;;;;;7.25;4.93;;;;;;;17.80;100.00;98433.03;4484703;32;20152;-66
2023/07/31 00:51:57;;;;;;;12.63;5.97;;;;;;;17.78;100.00;98429.78;4485811;31;20545;-66
2023/07/31 00:54:25;;;;;;;6.80;4.70;;;;;;;17.78;100.00;98429.78;4486294;31;20168;-66
2023/07/31 00:56:54;;;;;;;6.32;4.80;;;;;;;17.73;100.00;98433.00;4486278;31;20092;-66
2023/07/31 00:59:22;;;;;;;5.47;4.68;;;;;;;17.71;100.00;98428.88;4486001;31;20462;-66
2023/07/31 01:01:49;;;;;;;10.48;4.62;;;;;;;17.71;100.00;98434.19;4485726;31;20077;-66
2023/07/31 01:04:18;;;;;;;8.00;5.12;;;;;;;17.64;100.00;98439.44;4484649;32;20143;-66
2023/07/31 01:06:52;;;;;;;6.47;4.72;;;;;;;17.65;100.00;98432.31;4485837;31;20088;-66
2023/07/31 01:09:30;;;;;;;7.90;4.62;;;;;;;17.64;100.00;98428.00;4484731;32;20130;-66
2023/07/31 01:12:04;;;;;;;5.70;3.80;;;;;;;17.61;100.00;98431.87;4485706;31;20092;-66
2023/07/31 01:14:32;;;;;;;5.90;4.97;;;;;;;17.59;100.00;98436.53;4486160;31;20155;-66
2023/07/31 01:17:00;;;;;;;9.40;4.05;;;;;;;17.53;100.00;98443.44;4485738;31;20159;-66
2023/07/31 01:19:29;;;;;;;6.40;4.00;;;;;;;17.54;100.00;98449.53;4485862;31;20367;-66
2023/07/31 01:22:15;;;;;;;4.82;4.32;;;;;;;17.48;100.00;98452.94;4485847;31;20092;-66
2023/07/31 01:25:20;;;;;;;6.87;3.53;;;;;;;17.47;100.00;98451.28;4485872;31;20792;-66
2023/07/31 01:28:12;;;;;;;5.78;3.58;;;;;;;17.44;100.00;98443.72;4484472;32;20130;-66
2023/07/31 01:30:44;;;;;;;4.45;3.42;;;;;;;17.45;100.00;98432.94;4484711;32;20151;-66
2023/07/31 01:33:12;;;;;;;5.20;2.90;;;;;;;17.44;100.00;98433.97;4485975;31;20076;-66
2023/07/31 01:35:39;;;;;;;4.78;2.87;;;;;;;17.48;100.00;98421.97;4484216;32;20482;-66
2023/07/31 01:38:07;;;;;;;4.90;2.72;;;;;;;17.41;100.00;98422.91;4485912;32;20164;-66
2023/07/31 01:40:35;;;;;;;3.35;2.37;;;;;;;17.41;100.00;98413.16;4485591;32;20088;-66
2023/07/31 01:43:02;;;;;;;5.35;2.40;;;;;;;17.44;100.00;98396.91;4484569;32;20088;-66
2023/07/31 01:45:30;;;;;;;4.60;2.22;;;;;;;17.49;100.00;98409.56;4485749;31;20104;-66
2023/07/31 01:47:58;;;;;;;4.25;2.30;;;;;;;17.50;100.00;98398.78;4485487;31;20097;-66
2023/07/31 01:50:25;;;;;;;5.10;1.80;;;;;;;17.50;100.00;98396.12;4485542;32;20126;-66
2023/07/31 01:52:52;;;;;;;4.12;2.33;;;;;;;17.50;100.00;98395.28;4485443;32;20100;-66
2023/07/31 01:55:21;;;;;;;2.90;2.05;;;;;;;17.53;100.00;98400.22;4485671;32;20092;-66
2023/07/31 01:57:49;;;;;;;3.08;2.33;;;;;;;17.51;100.00;98395.09;4485455;32;20092;-66
2023/07/31 02:00:16;;;;;;;4.93;2.20;;;;;;;17.49;100.00;98402.44;4485529;31;20203;-66
2023/07/31 02:02:44;;;;;;;4.70;2.10;;;;;;;17.39;100.00;98391.34;4485686;32;20111;-66
2023/07/31 02:05:12;;;;;;;3.10;2.22;;;;;;;17.39;100.00;98394.00;4485623;31;20122;-66
2023/07/31 02:07:40;;;;;;;3.75;2.30;;;;;;;17.32;100.00;98395.75;4485390;31;20449;-66
2023/07/31 02:10:07;;;;;;;4.85;2.40;;;;;;;17.27;100.00;98398.97;4485573;32;20126;-66
2023/07/31 02:12:37;;;;;;;3.55;2.40;;;;;;;17.21;100.00;98405.03;4485341;31;20092;-66
2023/07/31 02:15:05;;;;;;;5.10;2.20;;;;;;;17.15;100.00;98398.66;4485523;32;20104;-66
2023/07/31 02:17:38;;;;;;;4.80;2.00;;;;;;;17.10;100.00;98402.88;4485418;31;20085;-66
2023/07/31 02:20:08;;;;;;;2.53;2.20;;;;;;;16.98;100.00;98406.00;4485512;32;20163;-66
2023/07/31 02:22:37;;;;;;;5.70;2.20;;;;;;;16.99;100.00;98405.00;4485359;31;20355;-66
2023/07/31 02:25:04;;;;;;;4.12;2.20;;;;;;;16.93;100.00;98407.59;4485281;32;20449;-66
2023/07/31 02:27:31;;;;;;;3.10;1.87;;;;;;;16.97;100.00;98403.56;4485347;31;20434;-66
2023/07/31 02:30:00;;;;;;;3.22;2.10;;;;;;;16.88;100.00;98413.44;4485359;32;20118;-66
2023/07/31 02:32:28;;;;;;;3.50;1.83;;;;;;;16.84;100.00;98423.53;4485150;32;20387;-66
2023/07/31 02:34:56;;;;;;;4.25;2.50;;;;;;;16.85;100.00;98417.25;4485242;32;20097;-66
2023/07/31 02:37:26;;;;;;;6.47;2.12;;;;;;;16.85;100.00;98419.06;4485110;32;20108;-66
2023/07/31 02:39:53;;;;;;;3.70;2.20;;;;;;;16.84;100.00;98418.25;4485218;31;20084;-66
2023/07/31 02:42:21;;;;;;;2.35;1.60;;;;;;;16.86;100.00;98420.72;4485083;31;20123;-66
2023/07/31 02:44:51;;;;;;;4.10;2.22;;;;;;;16.78;100.00;98419.00;4485186;31;20802;-66
2023/07/31 02:47:19;;;;;;;2.80;1.87;;;;;;;16.71;100.00;98433.97;4485284;31;20088;-66
2023/07/31 02:49:47;;;;;;;3.55;2.03;;;;;;;16.74;100.00;98444.16;4484866;32;20100;-66
2023/07/31 02:52:17;;;;;;;5.45;2.00;;;;;;;16.73;100.00;98447.84;4485048;32;20630;-66
2023/07/31 02:54:45;;;;;;;2.85;1.80;;;;;;;16.78;100.00;98449.94;4484581;31;20171;-66
2023/07/31 02:57:12;;;;;;;3.83;2.22;;;;;;;16.71;100.00;98447.19;4485039;32;20135;-66
2023/07/31 02:59:40;;;;;;;3.87;2.17;;;;;;;16.72;100.00;98446.19;4485056;31;20518;-66
2023/07/31 03:02:07;;;;;;;3.37;1.95;;;;;;;16.72;100.00;98462.06;4485053;31;20088;-66
2023/07/31 03:04:35;;;;;;;4.55;2.12;;;;;;;16.74;100.00;98460.03;4485183;32;20532;-66
2023/07/31 03:07:03;;;;;;;2.42;1.92;;;;;;;16.75;100.00;98466.97;4485006;32;20125;-66
2023/07/31 03:09:31;;;;;;;6.32;2.60;;;;;;;16.73;100.00;98463.72;4484973;31;20123;-66
2023/07/31 03:12:03;;;;;;;2.60;1.73;;;;;;;16.73;100.00;98471.66;4484975;31;20141;-66
2023/07/31 03:14:30;;;;;;;2.45;1.62;;;;;;;16.78;100.00;98471.91;4484686;31;20096;-66
2023/07/31 03:16:59;;;;;;;3.12;1.80;;;;;;;16.75;100.00;98474.91;4484997;32;20085;-66
2023/07/31 03:19:26;;;;;;;3.87;1.80;;;;;;;16.71;100.00;98476.28;4484691;31;20179;-66
2023/07/31 03:21:54;;;;;;;2.72;1.73;;;;;;;16.79;100.00;98475.34;4484805;32;20548;-66
2023/07/31 03:24:21;;;;;;;2.67;2.00;;;;;;;16.78;100.00;98477.19;4484856;32;20139;-66
2023/07/31 03:26:49;;;;;;;2.50;1.80;;;;;;;16.83;100.00;98469.50;4484988;32;20088;-66
2023/07/31 03:29:17;;;;;;;3.00;2.00;;;;;;;16.77;100.00;98469.44;4484810;32;20172;-66
2023/07/31 03:31:44;;;;;;;2.70;1.75;;;;;;;16.75;100.00;98466.16;4484749;31;20097;-66
2023/07/31 03:34:12;;;;;;;3.03;1.67;;;;;;;16.67;100.00;98470.53;4484748;32;20181;-66
2023/07/31 03:36:39;;;;;;;3.50;1.83;;;;;;;16.64;100.00;98478.03;4484823;32;20089;-66
2023/07/31 03:39:08;;;;;;;2.22;1.98;;;;;;;16.71;100.00;98481.56;4484534;32;20115;-66
2023/07/31 03:41:36;;;;;;;2.53;1.87;;;;;;;16.66;100.00;98474.19;4484570;32;20080;-66
2023/07/31 03:44:05;;;;;;;4.90;2.03;;;;;;;16.65;100.00;98475.22;4484515;31;20096;-66
2023/07/31 03:46:33;;;;;;;3.05;1.87;;;;;;;16.67;100.00;98475.03;4484637;32;20450;-66
2023/07/31 03:49:01;;;;;;;3.92;1.90;;;;;;;16.71;100.00;98476.28;4484246;31;20104;-66
2023/07/31 03:51:28;;;;;;;2.28;1.90;;;;;;;16.73;100.00;98479.56;4484411;31;20096;-66
2023/07/31 03:53:55;;;;;;;5.05;1.92;;;;;;;16.78;100.00;98479.84;4484406;31;20150;-66
2023/07/31 03:56:23;;;;;;;6.20;2.12;;;;;;;16.82;100.00;98475.81;4484504;31;20449;-66
2023/07/31 03:58:51;;;;;;;2.90;1.83;;;;;;;16.84;100.00;98480.94;4483024;32;20141;-66
2023/07/31 04:01:19;;;;;;;2.45;1.50;;;;;;;16.83;100.00;98476.63;4484356;32;20096;-66
2023/07/31 04:03:47;;;;;;;4.20;2.00;;;;;;;16.85;100.00;98467.53;4484130;31;20728;-66
2023/07/31 04:06:17;;;;;;;3.22;1.98;;;;;;;16.93;100.00;98476.41;4485499;31;20118;-66
2023/07/31 04:08:45;;;;;;;3.55;1.70;;;;;;;17.02;100.00;98477.94;4483659;31;20453;-66
2023/07/31 04:11:13;;;;;;;9.07;1.90;;;;;;;17.03;100.00;98475.09;4484711;31;20166;-66
2023/07/31 04:13:40;;;;;;;1.77;1.30;;;;;;;17.10;100.00;98482.28;4482272;31;20496;-66
2023/07/31 04:16:07;;;;;;;2.37;1.45;;;;;;;17.05;100.00;98485.50;4470564;32;20100;-66
2023/07/31 04:18:35;;;;;;;5.07;1.70;;;;;;;17.03;100.00;98480.38;4470482;32;20088;-66
2023/07/31 04:21:02;;;;;;;3.95;1.62;;;;;;;17.01;100.00;98487.66;4470522;32;20548;-66
2023/07/31 04:23:30;;;;;;;2.22;1.80;;;;;;;16.98;100.00;98482.75;4470238;32;20788;-64
2023/07/31 04:25:59;;;;;;;3.03;1.48;;;;;;;17.01;100.00;98482.38;4470541;32;20160;-66
2023/07/31 04:28:28;;;;;;;2.10;1.90;;;;;;;17.07;100.00;98475.53;4470377;32;20093;-66
2023/07/31 04:30:55;;;;;;;3.30;1.87;;;;;;;17.08;100.00;98481.63;4470459;32;20165;-66
2023/07/31 04:33:23;;;;;;;3.92;2.12;;;;;;;17.08;100.00;98479.81;4470679;32;20124;-66
2023/07/31 04:35:52;;;;;;;4.05;2.10;;;;;;;17.18;100.00;98474.22;4470434;32;20123;-66
2023/07/31 04:38:21;;;;;;;6.87;2.17;;;;;;;17.26;100.00;98483.87;4470531;32;20096;-66
2023/07/31 04:40:48;;;;;;;5.05;2.05;;;;;;;17.20;100.00;98477.53;4470417;32;20197;-66
2023/07/31 04:43:16;;;;;;;3.12;2.05;;;;;;;17.15;100.00;98480.72;4470542;32;20454;-66
2023/07/31 04:45:47;;;;;;;2.53;2.00;;;;;;;17.18;100.00;98474.22;4470506;32;20092;-66
2023/07/31 04:48:16;;;;;;;2.40;1.48;;;;;;;17.26;100.00;98482.06;4470436;32;20085;-66
2023/07/31 04:50:43;;;;;;;2.20;1.30;;;;;;;17.26;100.00;98479.41;4470583;32;20089;-66
2023/07/31 04:53:10;;;;;;;3.62;1.92;;;;;;;17.17;100.00;98486.66;4485115;32;20089;-66
2023/07/31 04:55:38;;;;;;;3.65;1.23;;;;;;;17.29;100.00;98486.97;4486381;32;20219;-67
2023/07/31 04:58:05;;;;;;;3.45;1.50;;;;;;;17.29;100.00;98488.78;4486347;32;20161;-69
2023/07/31 05:00:33;;;;;;;3.72;1.40;;;;;;;17.37;100.00;98483.41;4485949;31;20115;-68
2023/07/31 05:03:00;;;;;;;3.42;1.48;;;;;;;17.35;100.00;98483.59;4485969;32;20085;-67
2023/07/31 05:05:29;;;;;;;3.92;1.30;;;;;;;17.50;100.00;98480.88;4485838;31;20092;-68
2023/07/31 05:07:57;;;;;;;2.03;1.40;;;;;;;17.72;100.00;98479.03;4485922;32;20084;-67
2023/07/31 05:10:24;;;;;;;3.72;1.33;;;;;;;17.77;100.00;98470.50;4485948;32;20092;-66
2023/07/31 05:12:51;;;;;;;1.70;1.10;;;;;;;17.85;100.00;98465.09;4486044;31;20145;-66
2023/07/31 05:15:19;;;;;;;2.22;1.33;;;;;;;17.91;100.00;98472.31;4485848;32;20126;-66
2023/07/31 05:17:47;;;;;;;2.62;1.20;;;;;;;17.97;100.00;98472.53;4485487;31;20737;-66
2023/07/31 05:20:14;;;;;;;2.83;1.95;;;;;;;17.97;100.00;98468.09;4485871;32;20446;-66
2023/07/31 05:22:42;;;;;;;4.28;1.10;;;;;;;17.82;100.00;98475.25;4485787;31;20503;-66
2023/07/31 05:25:10;;;;;;;3.33;1.33;;;;;;;17.67;100.00;98472.69;4485603;32;20096;-66
2023/07/31 05:27:37;;;;;;;2.80;1.58;;;;;;;17.83;100.00;98469.75;4485676;32;20238;-66
2023/07/31 05:30:05;;;;;;;9.52;1.60;;;;;;;17.83;100.00;98468.94;4485604;32;20434;-66
2023/07/31 05:32:35;;;;;;;4.30;1.00;;;;;;;18.03;100.00;98474.41;4485828;32;20089;-66
2023/07/31 05:35:02;;;;;;;3.40;1.35;;;;;;;18.19;100.00;98470.66;4485540;32;20096;-66
2023/07/31 05:37:29;;;;;;;5.10;1.60;;;;;;;18.30;100.00;98474.63;4485527;31;20088;-66
2023/07/31 05:39:58;;;;;;;3.08;1.35;;;;;;;18.16;100.00;98463.91;4485515;32;20080;-66
2023/07/31 05:42:25;;;;;;;2.62;1.55;;;;;;;18.08;100.00;98482.63;4485579;32;20101;-66
2023/07/31 05:44:54;;;;;;;3.30;1.23;;;;;;;17.97;100.00;98473.38;4485644;32;20104;-66
2023/07/31 05:47:23;;;;;;;5.93;1.45;;;;;;;17.99;100.00;98471.34;4484396;32;20360;-66
2023/07/31 05:49:53;;;;;;;2.33;1.40;;;;;;;18.22;100.00;98479.06;4485254;32;20474;-66
2023/07/31 05:52:20;;;;;;;5.80;1.52;;;;;;;18.51;100.00;98471.88;4485446;32;20096;-66
2023/07/31 05:54:48;;;;;;;2.33;1.00;;;;;;;18.73;100.00;98480.56;4485436;32;20114;-66
2023/07/31 05:57:15;;;;;;;4.43;1.35;;;;;;;18.90;100.00;98474.97;4485498;32;20156;-66
2023/07/31 05:59:42;;;;;;;2.47;1.40;;;;;;;18.93;100.00;98472.72;4485441;32;20093;-65
2023/07/31 06:02:10;;;;;;;2.17;1.00;;;;;;;18.91;100.00;98477.44;4485364;31;20385;-65
2023/07/31 06:04:37;;;;;;;3.90;2.08;;;;;;;18.87;100.00;98478.81;4485325;32;20093;-65
2023/07/31 06:07:07;;;;;;;1.58;1.17;;;;;;;19.19;100.00;98476.50;4485370;31;20492;-65
2023/07/31 06:09:34;;;;;;;2.83;1.27;;;;;;;19.59;100.00;98484.56;4485589;32;20469;-65
2023/07/31 06:12:02;;;;;;;2.83;1.27;;;;;;;19.89;100.00;98494.81;4485446;32;20100;-65
2023/07/31 06:14:30;;;;;;;2.92;1.42;;;;;;;20.02;96.26;98478.06;4485241;31;20108;-65
2023/07/31 06:16:57;;;;;;;2.67;1.37;;;;;;;20.01;95.76;98482.53;4485349;32;20096;-66
2023/07/31 06:19:25;;;;;;;2.50;1.10;;;;;;;20.28;95.29;98487.03;4485327;32;20119;-65
2023/07/31 06:21:52;;;;;;;2.47;1.10;;;;;;;20.17;92.99;98480.50;4485192;32;20636;-66
2023/07/31 06:24:22;;;;;;;3.00;1.17;;;;;;;20.10;92.73;98498.31;4485556;32;20457;-66
2023/07/31 06:26:50;;;;;;;3.37;1.45;;;;;;;20.19;92.11;98489.09;4485154;31;20104;-66
2023/07/31 06:29:17;;;;;;;8.27;1.48;;;;;;;20.00;92.06;98507.50;4484489;31;20093;-65
2023/07/31 06:31:45;;;;;;;2.35;1.40;;;;;;;19.91;93.66;98499.94;4485466;32;20112;-65
2023/07/31 06:34:13;;;;;;;2.58;1.23;;;;;;;19.92;92.67;98497.06;4485025;32;20119;-66
2023/07/31 06:36:46;;;;;;;1.87;1.20;;;;;;;19.74;93.17;98494.16;4485235;32;20441;-66
2023/07/31 06:39:15;;;;;;;2.00;1.20;;;;;;;19.59;94.06;98489.03;4485146;32;20530;-67
2023/07/31 06:41:43;;;;;;;3.15;1.20;;;;;;;19.59;94.63;98503.16;4485110;32;20115;-67
2023/07/31 06:44:11;;;;;;;2.58;1.20;;;;;;;19.50;94.46;98502.53;4485513;31;20447;-67
2023/07/31 06:46:38;;;;;;;2.03;1.33;;;;;;;19.45;94.24;98506.78;4485195;32;20136;-67
2023/07/31 06:49:06;;;;;;;3.10;1.60;;;;;;;19.43;96.28;98500.88;4485026;32;20119;-66
2023/07/31 06:51:36;;;;;;;3.42;1.35;;;;;;;19.50;95.31;98504.38;4484961;32;20092;-66
2023/07/31 06:54:04;;;;;;;2.58;1.15;;;;;;;19.66;95.17;98506.63;4485281;31;20088;-66
2023/07/31 06:56:31;;;;;;;3.62;1.35;;;;;;;19.69;93.84;98495.59;4484132;31;20113;-67
2023/07/31 06:59:00;;;;;;;2.78;1.20;;;;;;;19.82;95.21;98509.97;4483306;31;20096;-67
2023/07/31 07:01:28;;;;;;;3.08;1.27;;;;;;;20.10;93.82;98509.75;4483072;31;20097;-67
2023/07/31 07:03:56;;;;;;;1.90;1.25;;;;;;;20.18;93.32;98511.38;4483793;31;20471;-67
2023/07/31 07:06:25;;;;;;;2.35;1.27;;;;;;;20.47;92.43;98522.59;4485003;32;20096;-67
2023/07/31 07:08:54;;;;;;;4.15;1.40;;;;;;;20.65;92.09;98527.28;4484873;31;20149;-68
2023/07/31 07:11:22;;;;;;;1.87;1.25;;;;;;;20.83;90.75;98535.47;4485015;31;20162;-67
2023/07/31 07:13:49;;;;;;;2.35;1.30;;;;;;;20.86;90.60;98539.56;4484889;31;20109;-67
2023/07/31 07:16:19;;;;;;;1.87;1.10;;;;;;;20.90;89.31;98535.44;4484845;32;20118;-67
2023/07/31 07:18:47;;;;;;;1.58;1.30;;;;;;;21.16;87.74;98531.84;4484767;32;20488;-67
2023/07/31 07:21:30;;;;;;;5.57;1.33;;;;;;;21.14;85.55;98533.12;4484711;32;20080;-67
2023/07/31 07:23:57;;;;;;;2.08;1.05;;;;;;;21.27;85.49;98535.69;4485288;32;20140;-67
2023/07/31 07:26:26;;;;;;;3.28;1.23;;;;;;;21.42;84.85;98538.94;4484700;32;20096;-67
2023/07/31 07:28:53;;;;;;;2.65;1.30;;;;;;;21.38;82.31;98548.38;4484724;32;20441;-66
2023/07/31 07:31:20;;;;;;;3.25;1.25;;;;;;;21.26;79.04;98539.41;4484788;32;20441;-67
2023/07/31 07:33:51;;;;;;;2.00;1.10;;;;;;;20.87;75.89;98543.84;4484964;32;20088;-67
2023/07/31 07:36:19;;;;;;;1.87;1.02;;;;;;;20.45;76.33;98535.31;4484688;31;20162;-67
2023/07/31 07:38:46;;;;;;;3.95;1.20;;;;;;;19.97;78.50;98531.84;4484542;32;20159;-66
2023/07/31 07:41:14;;;;;;;3.35;1.33;;;;;;;19.80;80.54;98528.78;4484527;32;20084;-66
2023/07/31 07:43:42;;;;;;;2.10;1.37;;;;;;;19.88;81.95;98538.41;4484581;31;20096;-66
2023/07/31 07:46:09;;;;;;;3.50;1.20;;;;;;;20.01;82.69;98533.06;4484662;32;20084;-66
2023/07/31 07:48:37;;;;;;;3.70;1.20;;;;;;;20.15;83.54;98533.06;4484391;32;20080;-66
2023/07/31 07:51:05;;;;;;;4.10;1.55;;;;;;;20.43;81.12;98524.88;4484256;31;20596;-66
2023/07/31 07:53:33;;;;;;;6.40;1.12;;;;;;;20.72;81.40;98534.25;4484557;32;20103;-66
2023/07/31 07:56:00;;;;;;;4.18;1.30;;;;;;;21.07;79.97;98538.47;4484429;31;20127;-66
2023/07/31 07:58:28;;;;;;;1.75;1.00;;;;;;;21.21;76.77;98539.22;4484308;31;20084;-66
2023/07/31 08:00:56;;;;;;;1.60;1.05;;;;;;;21.04;72.13;98533.56;4484312;31;20109;-66
2023/07/31 08:03:25;;;;;;;2.65;1.20;;;;;;;21.24;73.88;98536.13;4484288;32;20186;-67
2023/07/31 08:06:00;;;;;;;1.77;1.25;;;;;;;21.24;72.96;98538.78;4484370;31;20237;-67
2023/07/31 08:08:29;;;;;;;1.35;1.10;;;;;;;21.21;74.53;98542.72;4484520;31;20093;-67
2023/07/31 08:10:56;;;;;;;2.35;1.20;;;;;;;21.35;74.21;98545.31;4484225;31;20088;-67
2023/07/31 08:13:23;;;;;;;4.00;1.25;;;;;;;21.46;72.09;98541.97;4484293;31;20143;-67
2023/07/31 08:15:51;;;;;;;1.37;1.05;;;;;;;21.38;71.11;98550.22;4484106;31;20083;-67
2023/07/31 08:18:20;;;;;;;2.47;1.20;;;;;;;21.53;70.99;98552.63;4484361;32;20089;-67
2023/07/31 08:20:48;;;;;;;2.47;1.50;;;;;;;21.34;69.75;98544.50;4484055;31;20428;-67
2023/07/31 08:23:16;;;;;;;3.33;1.33;;;;;;;21.37;73.18;98554.72;4484083;31;20131;-67
2023/07/31 08:25:43;;;;;;;3.05;1.37;;;;;;;21.54;71.29;98555.06;4484052;32;20119;-67
2023/07/31 08:28:11;;;;;;;3.10;1.70;;;;;;;21.67;71.27;98562.19;4484048;31;20496;-67
2023/07/31 08:30:39;;;;;;;3.55;1.40;;;;;;;21.51;71.42;98557.34;4484018;32;20085;-67
2023/07/31 08:33:08;;;;;;;5.57;1.58;;;;;;;21.84;71.02;98559.00;4484196;31;20442;-67
2023/07/31 08:35:36;;;;;;;3.15;1.50;;;;;;;21.88;69.64;98563.69;4483672;31;20604;-68
2023/07/31 08:38:04;;;;;;;2.78;1.25;;;;;;;21.92;69.78;98545.41;4484101;31;20108;-68
2023/07/31 08:40:32;;;;;;;4.05;1.20;;;;;;;21.75;68.10;98550.44;4483679;31;20097;-67
2023/07/31 08:43:02;;;;;;;4.55;1.87;;;;;;;21.64;68.81;98551.94;4482432;32;20182;-67
2023/07/31 08:45:30;;;;;;;1.40;1.05;;;;;;;21.92;66.56;98542.75;4483905;31;20114;-67
2023/07/31 08:48:00;;;;;;;4.35;0.90;;;;;;;22.04;64.19;98565.00;4482503;32;20093;-68
2023/07/31 08:50:28;;;;;;;1.33;1.08;;;;;;;22.02;65.69;98550.28;4482657;32;20451;-67
2023/07/31 08:52:57;;;;;;;5.35;1.65;;;;;;;21.81;66.06;98544.25;4485473;32;20122;-68
2023/07/31 08:55:27;;;;;;;4.57;1.48;;;;;;;21.85;65.62;98545.47;4486078;31;20093;-67
2023/07/31 08:57:55;;;;;;;4.40;1.20;;;;;;;22.02;65.69;98548.41;4484936;32;20100;-67
2023/07/31 09:00:25;;;;;;;5.18;1.20;;;;;;;22.02;65.53;98552.94;4486009;31;20138;-67
2023/07/31 09:03:03;;;;;;;3.05;1.08;;;;;;;21.79;66.57;98554.31;4484576;32;20167;-67
2023/07/31 09:05:32;;;;;;;3.97;1.50;;;;;;;21.83;67.49;98539.50;4486082;31;20092;-67
2023/07/31 09:08:00;;;;;;;3.92;1.40;;;;;;;22.09;66.95;98535.00;4486188;31;20106;-67
2023/07/31 09:10:27;;;;;;;4.03;1.27;;;;;;;22.17;67.37;98541.97;4484503;32;20112;-67
2023/07/31 09:12:55;;;;;;;3.55;1.27;;;;;;;22.03;67.21;98538.56;4485826;32;20449;-67
2023/07/31 09:15:23;;;;;;;3.85;1.23;;;;;;;22.09;67.82;98530.50;4485782;31;20088;-67
2023/07/31 09:18:06;;;;;;;;;;;;;;;22.25;66.61;98533.66;4485124;32;20114;-67
2023/07/31 09:20:35;;;;;;;4.60;1.30;;;;;;;22.31;66.21;98532.81;4485770;31;20441;-67
2023/07/31 09:23:11;;;;;;;2.85;1.30;;;;;;;22.52;65.88;98531.59;4485732;31;20100;-67
2023/07/31 09:25:40;;;;;;;3.47;0.95;;;;;;;22.50;64.09;98531.81;4485785;31;20088;-67
2023/07/31 09:28:09;;;;;;;5.40;1.20;;;;;;;22.71;65.25;98532.44;4485669;31;20119;-67
2023/07/31 09:30:48;;;;;;;3.65;1.25;;;;;;;22.90;64.55;98532.44;4485584;32;20172;-67
2023/07/31 09:33:18;;;;;;;3.55;1.17;;;;;;;22.40;64.28;98515.47;4485691;31;20128;-67
2023/07/31 09:35:48;;;;;;;2.65;1.20;;;;;;;22.77;65.24;98520.88;4485603;31;20191;-67
2023/07/31 09:38:17;;;;;;;1.90;1.00;;;;;;;23.09;59.11;98520.72;4485549;31;20084;-67
2023/07/31 09:40:49;;;;;;;1.23;0.82;;;;;;;22.74;57.80;98525.81;4484301;32;20507;-67
2023/07/31 09:43:21;;;;;;;6.65;1.20;;;;;;;22.81;58.25;98526.56;4485500;32;20224;-67
2023/07/31 09:45:56;;;;;;;4.00;1.37;;;;;;;22.87;56.61;98529.16;4485618;31;20476;-67
2023/07/31 09:48:27;;;;;;;1.00;0.75;;;;;;;22.70;56.34;98520.13;4485519;31;20540;-67
2023/07/31 09:50:56;;;;;;;5.28;1.02;;;;;;;22.96;57.82;98518.19;4485503;31;20092;-67
2023/07/31 09:53:33;;;;;;;5.68;1.08;;;;;;;23.39;53.74;98517.25;4469912;32;20450;-67
2023/07/31 09:56:02;;;;;;;3.05;1.02;;;;;;;23.10;53.29;98519.66;4469888;32;20110;-67
2023/07/31 09:58:32;;;;;;;5.53;1.10;;;;;;;22.94;53.99;98512.25;4469824;32;20168;-67
2023/07/31 10:01:02;;;;;;;2.37;1.10;;;;;;;22.94;55.57;98521.09;4468369;32;20109;-67
2023/07/31 10:03:31;;;;;;;1.90;1.10;;;;;;;23.01;56.73;98511.12;4467717;32;20131;-68
2023/07/31 10:06:01;;;;;;;2.30;1.10;;;;;;;23.28;55.67;98521.50;4468519;32;20092;-68
2023/07/31 10:08:32;;;;;;;3.22;1.42;;;;;;;23.33;55.49;98510.97;4468448;32;20145;-67
2023/07/31 10:11:00;;;;;;;4.57;1.12;;;;;;;23.26;51.53;98525.47;4469813;32;20152;-67
2023/07/31 10:13:30;;;;;;;3.12;1.00;;;;;;;23.21;52.57;98526.94;4469765;32;20131;-67
2023/07/31 10:15:59;;;;;;;1.80;1.10;;;;;;;23.18;52.02;98522.06;4485301;31;20112;-67
2023/07/31 10:18:27;;;;;;;3.75;1.30;;;;;;;23.14;52.59;98526.22;4485276;31;20484;-67
2023/07/31 10:20:56;;;;;;;3.45;1.08;;;;;;;23.14;53.85;98531.56;4485492;32;20164;-67
2023/07/31 10:23:27;;;;;;;1.83;1.00;;;;;;;23.19;52.49;98522.84;4484067;32;20161;-67
2023/07/31 10:25:57;;;;;;;2.12;0.90;;;;;;;23.59;54.01;98511.62;4485429;31;20085;-67
2023/07/31 10:28:24;;;;;;;4.30;1.17;;;;;;;23.61;53.14;98516.75;4484075;32;20092;-67
2023/07/31 10:30:54;;;;;;;1.87;0.93;;;;;;;23.55;53.65;98511.25;4485166;31;20122;-67
2023/07/31 10:33:21;;;;;;;1.50;1.00;;;;;;;23.87;54.51;98508.34;4483911;32;20100;-67
2023/07/31 10:35:53;;;;;;;3.12;1.10;;;;;;;23.90;52.75;98525.81;4484043;32;20100;-67
2023/07/31 10:38:23;;;;;;;2.97;0.98;;;;;;;23.87;51.97;98523.59;4485625;31;20111;-67
2023/07/31 10:41:07;;;;;;;7.50;0.90;;;;;;;23.82;53.12;98518.09;4484939;31;20115;-67
2023/07/31 10:43:39;;;;;;;4.80;1.00;;;;;;;23.97;52.13;98523.00;4485195;31;20173;-67
2023/07/31 10:46:12;;;;;;;14.35;1.50;;;;;;;24.20;50.35;98530.28;4485568;31;20168;-67
2023/07/31 10:48:43;;;;;;;1.98;0.75;;;;;;;23.77;49.02;98528.66;4483467;31;20084;-67
2023/07/31 10:51:15;;;;;;;2.25;1.00;;;;;;;23.90;50.43;98509.75;4483526;31;20156;-67
2023/07/31 10:53:45;;;;;;;4.60;1.23;;;;;;;24.22;50.14;98496.84;4483415;31;20120;-67
2023/07/31 10:56:18;;;;;;;3.05;1.00;;;;;;;24.39;50.79;98506.87;4483912;31;20080;-67
2023/07/31 10:58:48;;;;;;;6.28;0.90;;;;;;;24.55;50.15;98506.16;4483787;31;20116;-67
2023/07/31 11:01:16;;;;;;;1.55;0.93;;;;;;;24.44;49.25;98499.78;4483651;32;20136;-67
2023/07/31 11:03:48;;;;;;;5.55;1.20;;;;;;;24.12;49.38;98491.28;4484638;32;20088;-67
2023/07/31 11:06:16;;;;;;;3.90;1.00;;;;;;;24.07;50.28;98491.97;4485084;32;20145;-67
2023/07/31 11:08:49;;;;;;;3.28;1.00;;;;;;;24.38;50.21;98494.53;4485013;31;20155;-67
2023/07/31 11:11:18;;;;;;;3.85;0.95;;;;;;;24.45;48.15;98489.84;4485254;31;20117;-67
2023/07/31 11:13:53;;;;;;;1.42;0.90;;;;;;;24.35;47.03;98479.75;4484712;31;20478;-67
2023/07/31 11:16:22;;;;;;;2.37;1.17;;;;;;;24.40;47.76;98487.09;4485025;31;20111;-67
2023/07/31 11:18:52;;;;;;;3.92;1.10;;;;;;;24.33;47.66;98487.22;4484874;31;20080;-67
2023/07/31 11:21:24;;;;;;;3.50;1.00;;;;;;;24.67;47.21;98483.94;4485237;31;20166;-67
2023/07/31 11:23:56;;;;;;;1.83;0.80;;;;;;;24.64;45.13;98484.41;4484960;31;20467;-67
2023/07/31 11:26:27;;;;;;;3.58;1.10;;;;;;;24.70;45.47;98480.78;4484994;31;20096;-67
2023/07/31 11:28:55;;;;;;;3.83;1.30;;;;;;;24.66;45.80;98479.63;4484638;31;20108;-67
2023/07/31 11:31:22;;;;;;;2.42;1.73;;;;;;;24.86;45.49;98471.19;4484669;32;20152;-67
2023/07/31 11:33:50;;;;;;;2.03;0.82;;;;;;;24.69;45.98;98481.84;4484698;32;20127;-67
2023/07/31 11:36:20;;;;;;;0.90;0.70;;;;;;;24.80;46.16;98483.69;4484755;32;20097;-67